sensor_id;sensor_type;location;lat;lon;timestamp;P1;durP1;ratioP1;P2;durP2;ratioP2
74487;SDS011;63019;51.080;13.642;2022-11-20T00:00:55;16.23;;;6.82;;
74487;SDS011;63019;51.080;13.642;2022-11-20T00:01:57;18.63;;;6.97;;
74487;SDS011;63019;51.080;13.642;2022-11-20T00:02:59;14.32;;;6.10;;
74487;SDS011;63019;51.080;13.642;2022-11-20T00:04:01;14.95;;;6.63;;
74487;SDS011;63019;51.080;13.642;2022-11-20T00:05:03;16.70;;;6.53;;
74487;SDS011;63019;51.080;13.642;2022-11-20T00:06:05;16.40;;;6.93;;
74487;SDS011;63019;51.080;13.642;2022-11-20T00:07:08;19.77;;;6.80;;
74487;SDS011;63019;51.080;13.642;2022-11-20T00:08:10;19.38;;;6.68;;
74487;SDS011;63019;51.080;13.642;2022-11-20T00:09:12;16.52;;;7.03;;
74487;SDS011;63019;51.080;13.642;2022-11-20T00:10:14;17.58;;;6.45;;
74487;SDS011;63019;51.080;13.642;2022-11-20T00:11:20;16.25;;;6.40;;
74487;SDS011;63019;51.080;13.642;2022-11-20T00:12:23;13.90;;;5.70;;
74487;SDS011;63019;51.080;13.642;2022-11-20T00:13:25;15.02;;;6.20;;
74487;SDS011;63019;51.080;13.642;2022-11-20T00:14:26;13.70;;;5.63;;
74487;SDS011;63019;51.080;13.642;2022-11-20T00:15:28;16.37;;;6.00;;
74487;SDS011;63019;51.080;13.642;2022-11-20T00:16:31;14.15;;;5.85;;
74487;SDS011;63019;51.080;13.642;2022-11-20T00:17:33;14.32;;;5.97;;
74487;SDS011;63019;51.080;13.642;2022-11-20T00:18:35;15.65;;;6.53;;
74487;SDS011;63019;51.080;13.642;2022-11-20T00:19:38;15.10;;;5.60;;
74487;SDS011;63019;51.080;13.642;2022-11-20T00:20:39;12.90;;;5.75;;
74487;SDS011;63019;51.080;13.642;2022-11-20T00:21:41;13.63;;;5.43;;
74487;SDS011;63019;51.080;13.642;2022-11-20T00:22:43;13.52;;;6.10;;
74487;SDS011;63019;51.080;13.642;2022-11-20T00:23:45;13.98;;;5.72;;
74487;SDS011;63019;51.080;13.642;2022-11-20T00:24:47;13.70;;;5.63;;
74487;SDS011;63019;51.080;13.642;2022-11-20T00:25:48;15.07;;;5.97;;
74487;SDS011;63019;51.080;13.642;2022-11-20T00:26:50;18.63;;;6.20;;
74487;SDS011;63019;51.080;13.642;2022-11-20T00:27:52;14.55;;;6.15;;
74487;SDS011;63019;51.080;13.642;2022-11-20T00:28:54;15.55;;;6.68;;
74487;SDS011;63019;51.080;13.642;2022-11-20T00:30:02;18.40;;;6.43;;
74487;SDS011;63019;51.080;13.642;2022-11-20T00:31:05;15.88;;;6.53;;
74487;SDS011;63019;51.080;13.642;2022-11-20T00:32:12;13.82;;;6.28;;
74487;SDS011;63019;51.080;13.642;2022-11-20T00:33:13;15.68;;;6.85;;
74487;SDS011;63019;51.080;13.642;2022-11-20T00:34:15;17.15;;;6.80;;
74487;SDS011;63019;51.080;13.642;2022-11-20T00:35:17;17.75;;;6.78;;
74487;SDS011;63019;51.080;13.642;2022-11-20T00:36:20;14.30;;;6.47;;
74487;SDS011;63019;51.080;13.642;2022-11-20T00:37:23;18.27;;;7.43;;
74487;SDS011;63019;51.080;13.642;2022-11-20T00:38:25;17.08;;;7.07;;
74487;SDS011;63019;51.080;13.642;2022-11-20T00:39:26;18.08;;;7.10;;
74487;SDS011;63019;51.080;13.642;2022-11-20T00:40:28;14.25;;;6.30;;
74487;SDS011;63019;51.080;13.642;2022-11-20T00:41:30;16.42;;;6.60;;
74487;SDS011;63019;51.080;13.642;2022-11-20T00:42:32;18.92;;;7.47;;
74487;SDS011;63019;51.080;13.642;2022-11-20T00:43:34;18.00;;;6.80;;
74487;SDS011;63019;51.080;13.642;2022-11-20T00:44:36;18.27;;;6.63;;
74487;SDS011;63019;51.080;13.642;2022-11-20T00:45:38;13.85;;;5.93;;
74487;SDS011;63019;51.080;13.642;2022-11-20T00:46:39;17.27;;;6.83;;
74487;SDS011;63019;51.080;13.642;2022-11-20T00:47:41;20.30;;;6.75;;
74487;SDS011;63019;51.080;13.642;2022-11-20T00:48:43;18.67;;;7.15;;
74487;SDS011;63019;51.080;13.642;2022-11-20T00:49:45;18.33;;;6.47;;
74487;SDS011;63019;51.080;13.642;2022-11-20T00:50:47;15.65;;;6.13;;
74487;SDS011;63019;51.080;13.642;2022-11-20T00:51:49;18.85;;;5.93;;
74487;SDS011;63019;51.080;13.642;2022-11-20T00:52:51;13.68;;;6.22;;
74487;SDS011;63019;51.080;13.642;2022-11-20T00:53:54;20.67;;;6.30;;
74487;SDS011;63019;51.080;13.642;2022-11-20T00:54:57;16.02;;;6.60;;
74487;SDS011;63019;51.080;13.642;2022-11-20T00:56:00;15.82;;;6.57;;
74487;SDS011;63019;51.080;13.642;2022-11-20T00:57:03;19.37;;;6.20;;
74487;SDS011;63019;51.080;13.642;2022-11-20T00:58:05;14.95;;;6.38;;
74487;SDS011;63019;51.080;13.642;2022-11-20T00:59:14;11.45;;;5.70;;
74487;SDS011;63019;51.080;13.642;2022-11-20T01:00:16;14.63;;;6.25;;
74487;SDS011;63019;51.080;13.642;2022-11-20T01:01:19;15.35;;;5.82;;
74487;SDS011;63019;51.080;13.642;2022-11-20T01:02:26;11.75;;;5.32;;
74487;SDS011;63019;51.080;13.642;2022-11-20T01:03:29;11.27;;;5.00;;
74487;SDS011;63019;51.080;13.642;2022-11-20T01:04:38;12.52;;;5.38;;
74487;SDS011;63019;51.080;13.642;2022-11-20T01:05:40;14.93;;;5.90;;
74487;SDS011;63019;51.080;13.642;2022-11-20T01:06:42;15.30;;;5.57;;
74487;SDS011;63019;51.080;13.642;2022-11-20T01:07:44;15.43;;;5.97;;
74487;SDS011;63019;51.080;13.642;2022-11-20T01:08:46;18.30;;;5.75;;
74487;SDS011;63019;51.080;13.642;2022-11-20T01:09:48;16.25;;;5.70;;
74487;SDS011;63019;51.080;13.642;2022-11-20T01:10:49;13.98;;;5.55;;
74487;SDS011;63019;51.080;13.642;2022-11-20T01:11:51;13.55;;;5.15;;
74487;SDS011;63019;51.080;13.642;2022-11-20T01:12:53;12.25;;;5.72;;
74487;SDS011;63019;51.080;13.642;2022-11-20T01:14:16;16.45;;;5.75;;
74487;SDS011;63019;51.080;13.642;2022-11-20T01:15:19;12.18;;;4.95;;
74487;SDS011;63019;51.080;13.642;2022-11-20T01:16:22;13.25;;;4.93;;
74487;SDS011;63019;51.080;13.642;2022-11-20T01:17:24;14.52;;;5.50;;
74487;SDS011;63019;51.080;13.642;2022-11-20T01:18:26;13.53;;;5.27;;
74487;SDS011;63019;51.080;13.642;2022-11-20T01:19:28;15.63;;;5.90;;
74487;SDS011;63019;51.080;13.642;2022-11-20T01:20:29;12.13;;;5.40;;
74487;SDS011;63019;51.080;13.642;2022-11-20T01:21:36;15.00;;;5.13;;
74487;SDS011;63019;51.080;13.642;2022-11-20T01:22:39;14.85;;;5.88;;
74487;SDS011;63019;51.080;13.642;2022-11-20T01:23:41;14.73;;;5.43;;
74487;SDS011;63019;51.080;13.642;2022-11-20T01:24:44;11.95;;;5.55;;
74487;SDS011;63019;51.080;13.642;2022-11-20T01:25:46;12.38;;;5.28;;
74487;SDS011;63019;51.080;13.642;2022-11-20T01:26:48;17.00;;;6.05;;
74487;SDS011;63019;51.080;13.642;2022-11-20T01:27:51;13.40;;;5.80;;
74487;SDS011;63019;51.080;13.642;2022-11-20T01:28:54;12.57;;;5.40;;
74487;SDS011;63019;51.080;13.642;2022-11-20T01:29:56;14.27;;;6.22;;
74487;SDS011;63019;51.080;13.642;2022-11-20T01:31:01;15.13;;;5.72;;
74487;SDS011;63019;51.080;13.642;2022-11-20T01:32:16;14.32;;;5.40;;
74487;SDS011;63019;51.080;13.642;2022-11-20T01:33:17;14.68;;;6.18;;
74487;SDS011;63019;51.080;13.642;2022-11-20T01:34:19;14.85;;;6.07;;
74487;SDS011;63019;51.080;13.642;2022-11-20T01:35:23;16.33;;;6.28;;
74487;SDS011;63019;51.080;13.642;2022-11-20T01:36:26;16.88;;;7.07;;
74487;SDS011;63019;51.080;13.642;2022-11-20T01:37:30;17.05;;;6.00;;
74487;SDS011;63019;51.080;13.642;2022-11-20T01:38:32;12.13;;;5.97;;
74487;SDS011;63019;51.080;13.642;2022-11-20T01:39:34;13.70;;;6.47;;
74487;SDS011;63019;51.080;13.642;2022-11-20T01:40:35;16.85;;;6.57;;
74487;SDS011;63019;51.080;13.642;2022-11-20T01:41:37;17.52;;;5.90;;
74487;SDS011;63019;51.080;13.642;2022-11-20T01:43:06;13.88;;;5.22;;
74487;SDS011;63019;51.080;13.642;2022-11-20T01:44:43;20.77;;;6.47;;
74487;SDS011;63019;51.080;13.642;2022-11-20T01:46:03;14.45;;;5.95;;
74487;SDS011;63019;51.080;13.642;2022-11-20T01:47:25;14.55;;;5.68;;
74487;SDS011;63019;51.080;13.642;2022-11-20T01:48:51;14.68;;;5.50;;
74487;SDS011;63019;51.080;13.642;2022-11-20T01:52:29;14.93;;;5.88;;
74487;SDS011;63019;51.080;13.642;2022-11-20T01:53:37;18.73;;;5.70;;
74487;SDS011;63019;51.080;13.642;2022-11-20T01:54:41;13.45;;;5.90;;
74487;SDS011;63019;51.080;13.642;2022-11-20T01:55:50;18.52;;;6.13;;
74487;SDS011;63019;51.080;13.642;2022-11-20T01:56:54;12.75;;;5.63;;
74487;SDS011;63019;51.080;13.642;2022-11-20T01:57:58;15.88;;;6.35;;
74487;SDS011;63019;51.080;13.642;2022-11-20T01:59:02;16.58;;;6.57;;
74487;SDS011;63019;51.080;13.642;2022-11-20T02:00:10;16.92;;;6.30;;
74487;SDS011;63019;51.080;13.642;2022-11-20T02:01:15;13.43;;;5.43;;
74487;SDS011;63019;51.080;13.642;2022-11-20T02:02:17;14.50;;;6.57;;
74487;SDS011;63019;51.080;13.642;2022-11-20T02:03:19;16.13;;;6.20;;
74487;SDS011;63019;51.080;13.642;2022-11-20T02:04:21;15.07;;;6.20;;
74487;SDS011;63019;51.080;13.642;2022-11-20T02:06:45;15.05;;;5.38;;
74487;SDS011;63019;51.080;13.642;2022-11-20T02:07:55;16.30;;;5.20;;
74487;SDS011;63019;51.080;13.642;2022-11-20T02:08:58;13.40;;;5.95;;
74487;SDS011;63019;51.080;13.642;2022-11-20T02:10:00;15.85;;;6.95;;
74487;SDS011;63019;51.080;13.642;2022-11-20T02:11:02;16.52;;;6.45;;
74487;SDS011;63019;51.080;13.642;2022-11-20T02:12:04;22.83;;;6.93;;
74487;SDS011;63019;51.080;13.642;2022-11-20T02:13:26;17.35;;;6.72;;
74487;SDS011;63019;51.080;13.642;2022-11-20T02:14:44;18.20;;;6.35;;
74487;SDS011;63019;51.080;13.642;2022-11-20T02:15:45;20.45;;;6.45;;
74487;SDS011;63019;51.080;13.642;2022-11-20T02:16:48;15.52;;;6.65;;
74487;SDS011;63019;51.080;13.642;2022-11-20T02:17:50;14.40;;;6.18;;
74487;SDS011;63019;51.080;13.642;2022-11-20T02:18:56;16.77;;;6.75;;
74487;SDS011;63019;51.080;13.642;2022-11-20T02:20:02;16.17;;;6.22;;
74487;SDS011;63019;51.080;13.642;2022-11-20T02:21:13;14.52;;;6.25;;
74487;SDS011;63019;51.080;13.642;2022-11-20T02:22:33;16.50;;;5.67;;
74487;SDS011;63019;51.080;13.642;2022-11-20T02:25:02;16.17;;;5.10;;
74487;SDS011;63019;51.080;13.642;2022-11-20T02:26:05;18.88;;;5.40;;
74487;SDS011;63019;51.080;13.642;2022-11-20T02:27:12;13.02;;;5.65;;
74487;SDS011;63019;51.080;13.642;2022-11-20T02:28:16;13.98;;;5.80;;
74487;SDS011;63019;51.080;13.642;2022-11-20T02:29:23;14.52;;;5.55;;
74487;SDS011;63019;51.080;13.642;2022-11-20T02:30:27;9.90;;;4.80;;
74487;SDS011;63019;51.080;13.642;2022-11-20T02:31:33;15.52;;;5.57;;
74487;SDS011;63019;51.080;13.642;2022-11-20T02:32:38;12.60;;;5.15;;
74487;SDS011;63019;51.080;13.642;2022-11-20T02:33:40;12.30;;;5.40;;
74487;SDS011;63019;51.080;13.642;2022-11-20T02:34:42;14.57;;;5.65;;
74487;SDS011;63019;51.080;13.642;2022-11-20T02:35:45;13.68;;;5.20;;
74487;SDS011;63019;51.080;13.642;2022-11-20T02:36:48;12.68;;;5.88;;
74487;SDS011;63019;51.080;13.642;2022-11-20T02:37:55;14.15;;;5.30;;
74487;SDS011;63019;51.080;13.642;2022-11-20T02:38:59;13.68;;;4.97;;
74487;SDS011;63019;51.080;13.642;2022-11-20T02:40:01;14.60;;;5.63;;
74487;SDS011;63019;51.080;13.642;2022-11-20T02:41:03;13.82;;;5.63;;
74487;SDS011;63019;51.080;13.642;2022-11-20T02:42:05;14.70;;;5.97;;
74487;SDS011;63019;51.080;13.642;2022-11-20T02:43:07;12.90;;;5.65;;
74487;SDS011;63019;51.080;13.642;2022-11-20T02:44:09;14.40;;;5.63;;
74487;SDS011;63019;51.080;13.642;2022-11-20T02:45:11;13.75;;;5.40;;
74487;SDS011;63019;51.080;13.642;2022-11-20T02:46:13;15.07;;;5.32;;
74487;SDS011;63019;51.080;13.642;2022-11-20T02:47:15;15.18;;;5.82;;
74487;SDS011;63019;51.080;13.642;2022-11-20T02:48:17;14.18;;;5.90;;
74487;SDS011;63019;51.080;13.642;2022-11-20T02:49:19;13.57;;;5.68;;
74487;SDS011;63019;51.080;13.642;2022-11-20T02:50:21;16.33;;;5.28;;
74487;SDS011;63019;51.080;13.642;2022-11-20T02:51:23;19.30;;;6.80;;
74487;SDS011;63019;51.080;13.642;2022-11-20T02:52:25;20.10;;;5.78;;
74487;SDS011;63019;51.080;13.642;2022-11-20T02:53:27;19.35;;;6.40;;
74487;SDS011;63019;51.080;13.642;2022-11-20T02:54:29;13.57;;;6.17;;
74487;SDS011;63019;51.080;13.642;2022-11-20T02:55:30;15.32;;;5.50;;
74487;SDS011;63019;51.080;13.642;2022-11-20T02:56:32;18.63;;;6.88;;
74487;SDS011;63019;51.080;13.642;2022-11-20T02:57:34;13.10;;;5.45;;
74487;SDS011;63019;51.080;13.642;2022-11-20T02:58:36;16.48;;;6.78;;
74487;SDS011;63019;51.080;13.642;2022-11-20T02:59:38;16.52;;;6.60;;
74487;SDS011;63019;51.080;13.642;2022-11-20T03:00:40;16.25;;;6.75;;
74487;SDS011;63019;51.080;13.642;2022-11-20T03:01:42;17.48;;;6.85;;
74487;SDS011;63019;51.080;13.642;2022-11-20T03:02:44;14.57;;;6.43;;
74487;SDS011;63019;51.080;13.642;2022-11-20T03:03:46;13.83;;;6.17;;
74487;SDS011;63019;51.080;13.642;2022-11-20T03:04:49;17.90;;;6.57;;
74487;SDS011;63019;51.080;13.642;2022-11-20T03:05:51;18.17;;;6.22;;
74487;SDS011;63019;51.080;13.642;2022-11-20T03:06:53;13.77;;;6.03;;
74487;SDS011;63019;51.080;13.642;2022-11-20T03:07:54;11.68;;;5.38;;
74487;SDS011;63019;51.080;13.642;2022-11-20T03:08:56;13.05;;;6.53;;
74487;SDS011;63019;51.080;13.642;2022-11-20T03:09:58;15.00;;;6.13;;
74487;SDS011;63019;51.080;13.642;2022-11-20T03:11:04;18.00;;;6.85;;
74487;SDS011;63019;51.080;13.642;2022-11-20T03:12:07;14.82;;;5.70;;
74487;SDS011;63019;51.080;13.642;2022-11-20T03:13:09;14.52;;;5.45;;
74487;SDS011;63019;51.080;13.642;2022-11-20T03:14:10;11.20;;;5.40;;
74487;SDS011;63019;51.080;13.642;2022-11-20T03:15:12;14.00;;;5.57;;
74487;SDS011;63019;51.080;13.642;2022-11-20T03:16:19;14.23;;;5.80;;
74487;SDS011;63019;51.080;13.642;2022-11-20T03:17:22;17.02;;;5.50;;
74487;SDS011;63019;51.080;13.642;2022-11-20T03:18:24;17.98;;;5.63;;
74487;SDS011;63019;51.080;13.642;2022-11-20T03:19:28;12.43;;;5.47;;
74487;SDS011;63019;51.080;13.642;2022-11-20T03:20:31;11.15;;;4.82;;
74487;SDS011;63019;51.080;13.642;2022-11-20T03:21:34;10.98;;;4.32;;
74487;SDS011;63019;51.080;13.642;2022-11-20T03:22:36;9.63;;;4.53;;
74487;SDS011;63019;51.080;13.642;2022-11-20T03:23:38;13.23;;;5.78;;
74487;SDS011;63019;51.080;13.642;2022-11-20T03:24:40;11.97;;;4.40;;
74487;SDS011;63019;51.080;13.642;2022-11-20T03:25:42;17.90;;;5.40;;
74487;SDS011;63019;51.080;13.642;2022-11-20T03:26:44;12.18;;;5.32;;
74487;SDS011;63019;51.080;13.642;2022-11-20T03:27:45;13.00;;;5.38;;
74487;SDS011;63019;51.080;13.642;2022-11-20T03:28:54;15.43;;;4.93;;
74487;SDS011;63019;51.080;13.642;2022-11-20T03:29:57;11.57;;;5.20;;
74487;SDS011;63019;51.080;13.642;2022-11-20T03:31:04;13.45;;;5.15;;
74487;SDS011;63019;51.080;13.642;2022-11-20T03:32:11;10.55;;;4.78;;
74487;SDS011;63019;51.080;13.642;2022-11-20T03:33:12;17.25;;;5.20;;
74487;SDS011;63019;51.080;13.642;2022-11-20T03:34:14;13.27;;;5.18;;
74487;SDS011;63019;51.080;13.642;2022-11-20T03:35:16;13.17;;;4.63;;
74487;SDS011;63019;51.080;13.642;2022-11-20T03:36:19;15.35;;;5.55;;
74487;SDS011;63019;51.080;13.642;2022-11-20T03:37:21;14.50;;;4.95;;
74487;SDS011;63019;51.080;13.642;2022-11-20T03:38:23;10.73;;;4.63;;
74487;SDS011;63019;51.080;13.642;2022-11-20T03:39:25;13.50;;;4.82;;
74487;SDS011;63019;51.080;13.642;2022-11-20T03:40:27;9.65;;;4.07;;
74487;SDS011;63019;51.080;13.642;2022-11-20T03:41:30;12.80;;;4.82;;
74487;SDS011;63019;51.080;13.642;2022-11-20T03:42:32;12.40;;;4.80;;
74487;SDS011;63019;51.080;13.642;2022-11-20T03:43:47;16.38;;;4.55;;
74487;SDS011;63019;51.080;13.642;2022-11-20T03:44:52;11.80;;;4.47;;
74487;SDS011;63019;51.080;13.642;2022-11-20T03:45:54;13.35;;;4.68;;
74487;SDS011;63019;51.080;13.642;2022-11-20T03:46:56;13.32;;;4.70;;
74487;SDS011;63019;51.080;13.642;2022-11-20T03:47:58;18.00;;;4.30;;
74487;SDS011;63019;51.080;13.642;2022-11-20T03:49:00;12.13;;;4.55;;
74487;SDS011;63019;51.080;13.642;2022-11-20T03:50:02;13.32;;;4.68;;
74487;SDS011;63019;51.080;13.642;2022-11-20T03:51:11;13.35;;;5.05;;
74487;SDS011;63019;51.080;13.642;2022-11-20T03:52:14;13.15;;;5.00;;
74487;SDS011;63019;51.080;13.642;2022-11-20T03:53:16;12.40;;;4.88;;
74487;SDS011;63019;51.080;13.642;2022-11-20T03:54:20;14.73;;;4.78;;
74487;SDS011;63019;51.080;13.642;2022-11-20T03:55:22;11.57;;;4.17;;
74487;SDS011;63019;51.080;13.642;2022-11-20T03:56:31;13.60;;;4.53;;
74487;SDS011;63019;51.080;13.642;2022-11-20T03:57:35;13.32;;;4.25;;
74487;SDS011;63019;51.080;13.642;2022-11-20T03:58:38;14.05;;;4.68;;
74487;SDS011;63019;51.080;13.642;2022-11-20T03:59:40;15.43;;;4.88;;
74487;SDS011;63019;51.080;13.642;2022-11-20T04:00:42;15.93;;;5.20;;
74487;SDS011;63019;51.080;13.642;2022-11-20T04:01:44;12.70;;;4.20;;
74487;SDS011;63019;51.080;13.642;2022-11-20T04:02:49;12.38;;;4.63;;
74487;SDS011;63019;51.080;13.642;2022-11-20T04:03:52;14.70;;;4.50;;
74487;SDS011;63019;51.080;13.642;2022-11-20T04:04:55;10.95;;;4.65;;
74487;SDS011;63019;51.080;13.642;2022-11-20T04:06:01;15.53;;;4.20;;
74487;SDS011;63019;51.080;13.642;2022-11-20T04:07:12;8.98;;;3.33;;
74487;SDS011;63019;51.080;13.642;2022-11-20T04:08:14;7.78;;;3.42;;
74487;SDS011;63019;51.080;13.642;2022-11-20T04:09:16;10.48;;;3.78;;
74487;SDS011;63019;51.080;13.642;2022-11-20T04:10:18;8.57;;;3.67;;
74487;SDS011;63019;51.080;13.642;2022-11-20T04:11:21;6.63;;;3.10;;
74487;SDS011;63019;51.080;13.642;2022-11-20T04:12:24;9.38;;;3.53;;
74487;SDS011;63019;51.080;13.642;2022-11-20T04:13:26;9.32;;;3.88;;
74487;SDS011;63019;51.080;13.642;2022-11-20T04:14:28;12.20;;;3.67;;
74487;SDS011;63019;51.080;13.642;2022-11-20T04:15:29;7.63;;;3.40;;
74487;SDS011;63019;51.080;13.642;2022-11-20T04:16:38;7.13;;;3.50;;
74487;SDS011;63019;51.080;13.642;2022-11-20T04:17:40;8.95;;;3.50;;
74487;SDS011;63019;51.080;13.642;2022-11-20T04:18:42;12.15;;;4.20;;
74487;SDS011;63019;51.080;13.642;2022-11-20T04:19:44;9.43;;;3.72;;
74487;SDS011;63019;51.080;13.642;2022-11-20T04:20:46;7.22;;;3.25;;
74487;SDS011;63019;51.080;13.642;2022-11-20T04:21:48;9.50;;;3.80;;
74487;SDS011;63019;51.080;13.642;2022-11-20T04:22:52;8.02;;;3.50;;
74487;SDS011;63019;51.080;13.642;2022-11-20T04:23:55;10.30;;;4.10;;
74487;SDS011;63019;51.080;13.642;2022-11-20T04:24:57;7.93;;;3.72;;
74487;SDS011;63019;51.080;13.642;2022-11-20T04:26:06;9.20;;;3.85;;
74487;SDS011;63019;51.080;13.642;2022-11-20T04:27:10;14.20;;;3.53;;
74487;SDS011;63019;51.080;13.642;2022-11-20T04:28:12;9.85;;;3.63;;
74487;SDS011;63019;51.080;13.642;2022-11-20T04:29:14;15.10;;;3.90;;
74487;SDS011;63019;51.080;13.642;2022-11-20T04:30:15;10.57;;;4.05;;
74487;SDS011;63019;51.080;13.642;2022-11-20T04:31:18;11.70;;;3.92;;
74487;SDS011;63019;51.080;13.642;2022-11-20T04:32:22;8.07;;;3.30;;
74487;SDS011;63019;51.080;13.642;2022-11-20T04:33:23;10.18;;;3.38;;
74487;SDS011;63019;51.080;13.642;2022-11-20T04:34:28;13.13;;;4.05;;
74487;SDS011;63019;51.080;13.642;2022-11-20T04:35:30;9.70;;;4.07;;
74487;SDS011;63019;51.080;13.642;2022-11-20T04:36:34;12.85;;;3.83;;
74487;SDS011;63019;51.080;13.642;2022-11-20T04:37:36;10.50;;;3.70;;
74487;SDS011;63019;51.080;13.642;2022-11-20T04:38:38;7.07;;;3.40;;
74487;SDS011;63019;51.080;13.642;2022-11-20T04:39:40;10.27;;;3.63;;
74487;SDS011;63019;51.080;13.642;2022-11-20T04:40:42;9.70;;;3.70;;
74487;SDS011;63019;51.080;13.642;2022-11-20T04:41:44;9.02;;;3.70;;
74487;SDS011;63019;51.080;13.642;2022-11-20T04:42:46;9.05;;;3.75;;
74487;SDS011;63019;51.080;13.642;2022-11-20T04:43:48;9.98;;;3.80;;
74487;SDS011;63019;51.080;13.642;2022-11-20T04:44:51;10.82;;;3.40;;
74487;SDS011;63019;51.080;13.642;2022-11-20T04:45:53;10.40;;;3.20;;
74487;SDS011;63019;51.080;13.642;2022-11-20T04:46:55;11.65;;;3.42;;
74487;SDS011;63019;51.080;13.642;2022-11-20T04:47:57;8.80;;;3.60;;
74487;SDS011;63019;51.080;13.642;2022-11-20T04:48:59;11.88;;;3.50;;
74487;SDS011;63019;51.080;13.642;2022-11-20T04:50:01;10.88;;;3.10;;
74487;SDS011;63019;51.080;13.642;2022-11-20T04:51:03;9.90;;;3.38;;
74487;SDS011;63019;51.080;13.642;2022-11-20T04:52:05;9.18;;;3.40;;
74487;SDS011;63019;51.080;13.642;2022-11-20T04:53:07;9.15;;;3.58;;
74487;SDS011;63019;51.080;13.642;2022-11-20T04:54:09;8.18;;;3.50;;
74487;SDS011;63019;51.080;13.642;2022-11-20T04:55:12;11.77;;;3.47;;
74487;SDS011;63019;51.080;13.642;2022-11-20T04:56:14;7.22;;;3.47;;
74487;SDS011;63019;51.080;13.642;2022-11-20T04:57:16;8.20;;;3.53;;
74487;SDS011;63019;51.080;13.642;2022-11-20T04:58:18;7.27;;;2.90;;
74487;SDS011;63019;51.080;13.642;2022-11-20T04:59:20;6.68;;;2.65;;
74487;SDS011;63019;51.080;13.642;2022-11-20T05:00:22;10.88;;;3.63;;
74487;SDS011;63019;51.080;13.642;2022-11-20T05:01:24;5.38;;;2.90;;
74487;SDS011;63019;51.080;13.642;2022-11-20T05:02:26;8.13;;;3.45;;
74487;SDS011;63019;51.080;13.642;2022-11-20T05:03:28;7.55;;;3.30;;
74487;SDS011;63019;51.080;13.642;2022-11-20T05:04:30;6.05;;;2.78;;
74487;SDS011;63019;51.080;13.642;2022-11-20T05:05:33;6.78;;;3.00;;
74487;SDS011;63019;51.080;13.642;2022-11-20T05:06:36;8.10;;;3.55;;
74487;SDS011;63019;51.080;13.642;2022-11-20T05:07:37;5.57;;;2.78;;
74487;SDS011;63019;51.080;13.642;2022-11-20T05:08:39;7.73;;;2.97;;
74487;SDS011;63019;51.080;13.642;2022-11-20T05:09:41;5.70;;;2.78;;
74487;SDS011;63019;51.080;13.642;2022-11-20T05:10:43;7.30;;;2.83;;
74487;SDS011;63019;51.080;13.642;2022-11-20T05:11:45;7.80;;;3.17;;
74487;SDS011;63019;51.080;13.642;2022-11-20T05:12:51;11.27;;;3.35;;
74487;SDS011;63019;51.080;13.642;2022-11-20T05:13:53;11.43;;;3.08;;
74487;SDS011;63019;51.080;13.642;2022-11-20T05:14:56;13.27;;;3.35;;
74487;SDS011;63019;51.080;13.642;2022-11-20T05:16:01;7.90;;;3.20;;
74487;SDS011;63019;51.080;13.642;2022-11-20T05:17:04;6.38;;;2.90;;
74487;SDS011;63019;51.080;13.642;2022-11-20T05:18:06;7.15;;;3.22;;
74487;SDS011;63019;51.080;13.642;2022-11-20T05:19:08;7.87;;;2.83;;
74487;SDS011;63019;51.080;13.642;2022-11-20T05:20:10;7.32;;;3.17;;
74487;SDS011;63019;51.080;13.642;2022-11-20T05:21:12;7.93;;;3.10;;
74487;SDS011;63019;51.080;13.642;2022-11-20T05:22:14;8.63;;;3.67;;
74487;SDS011;63019;51.080;13.642;2022-11-20T05:23:16;9.88;;;3.17;;
74487;SDS011;63019;51.080;13.642;2022-11-20T05:24:18;7.43;;;2.60;;
74487;SDS011;63019;51.080;13.642;2022-11-20T05:25:20;8.13;;;3.30;;
74487;SDS011;63019;51.080;13.642;2022-11-20T05:26:22;10.27;;;3.20;;
74487;SDS011;63019;51.080;13.642;2022-11-20T05:27:23;6.85;;;3.17;;
74487;SDS011;63019;51.080;13.642;2022-11-20T05:28:26;6.82;;;3.00;;
74487;SDS011;63019;51.080;13.642;2022-11-20T05:29:29;8.13;;;3.00;;
74487;SDS011;63019;51.080;13.642;2022-11-20T05:30:31;6.47;;;3.10;;
74487;SDS011;63019;51.080;13.642;2022-11-20T05:31:32;8.35;;;3.35;;
74487;SDS011;63019;51.080;13.642;2022-11-20T05:32:34;8.15;;;3.08;;
74487;SDS011;63019;51.080;13.642;2022-11-20T05:33:36;10.48;;;3.15;;
74487;SDS011;63019;51.080;13.642;2022-11-20T05:34:40;7.18;;;3.35;;
74487;SDS011;63019;51.080;13.642;2022-11-20T05:35:42;7.28;;;3.17;;
74487;SDS011;63019;51.080;13.642;2022-11-20T05:36:44;7.93;;;3.20;;
74487;SDS011;63019;51.080;13.642;2022-11-20T05:37:46;6.50;;;3.08;;
74487;SDS011;63019;51.080;13.642;2022-11-20T05:38:48;6.13;;;2.67;;
74487;SDS011;63019;51.080;13.642;2022-11-20T05:39:51;8.37;;;3.40;;
74487;SDS011;63019;51.080;13.642;2022-11-20T05:40:53;13.23;;;3.30;;
74487;SDS011;63019;51.080;13.642;2022-11-20T05:41:55;8.05;;;3.13;;
74487;SDS011;63019;51.080;13.642;2022-11-20T05:43:15;6.57;;;3.05;;
74487;SDS011;63019;51.080;13.642;2022-11-20T05:44:17;7.03;;;2.92;;
74487;SDS011;63019;51.080;13.642;2022-11-20T05:45:18;9.18;;;3.00;;
74487;SDS011;63019;51.080;13.642;2022-11-20T05:46:21;8.73;;;3.80;;
74487;SDS011;63019;51.080;13.642;2022-11-20T05:47:31;7.88;;;3.22;;
74487;SDS011;63019;51.080;13.642;2022-11-20T05:48:35;7.80;;;3.10;;
74487;SDS011;63019;51.080;13.642;2022-11-20T05:49:38;7.78;;;3.30;;
74487;SDS011;63019;51.080;13.642;2022-11-20T05:50:39;7.23;;;3.50;;
74487;SDS011;63019;51.080;13.642;2022-11-20T05:51:41;8.85;;;3.70;;
74487;SDS011;63019;51.080;13.642;2022-11-20T05:52:43;10.57;;;3.58;;
74487;SDS011;63019;51.080;13.642;2022-11-20T05:53:45;10.45;;;3.65;;
74487;SDS011;63019;51.080;13.642;2022-11-20T05:54:49;7.38;;;3.17;;
74487;SDS011;63019;51.080;13.642;2022-11-20T05:56:00;7.00;;;3.00;;
74487;SDS011;63019;51.080;13.642;2022-11-20T05:57:03;6.88;;;2.95;;
74487;SDS011;63019;51.080;13.642;2022-11-20T05:58:05;6.72;;;3.05;;
74487;SDS011;63019;51.080;13.642;2022-11-20T05:59:07;7.38;;;2.95;;
74487;SDS011;63019;51.080;13.642;2022-11-20T06:00:09;6.55;;;2.90;;
74487;SDS011;63019;51.080;13.642;2022-11-20T06:01:18;7.90;;;2.90;;
74487;SDS011;63019;51.080;13.642;2022-11-20T06:02:21;7.32;;;2.67;;
74487;SDS011;63019;51.080;13.642;2022-11-20T06:03:23;7.55;;;3.00;;
74487;SDS011;63019;51.080;13.642;2022-11-20T06:04:25;5.75;;;2.70;;
74487;SDS011;63019;51.080;13.642;2022-11-20T06:05:27;8.45;;;2.78;;
74487;SDS011;63019;51.080;13.642;2022-11-20T06:06:28;11.23;;;2.80;;
74487;SDS011;63019;51.080;13.642;2022-11-20T06:07:30;6.18;;;2.75;;
74487;SDS011;63019;51.080;13.642;2022-11-20T06:08:32;6.28;;;2.55;;
74487;SDS011;63019;51.080;13.642;2022-11-20T06:09:34;6.15;;;2.50;;
74487;SDS011;63019;51.080;13.642;2022-11-20T06:10:36;6.72;;;2.72;;
74487;SDS011;63019;51.080;13.642;2022-11-20T06:11:37;9.87;;;2.60;;
74487;SDS011;63019;51.080;13.642;2022-11-20T06:12:39;6.28;;;2.75;;
74487;SDS011;63019;51.080;13.642;2022-11-20T06:13:41;6.68;;;2.47;;
74487;SDS011;63019;51.080;13.642;2022-11-20T06:14:43;5.22;;;1.90;;
74487;SDS011;63019;51.080;13.642;2022-11-20T06:15:49;6.78;;;2.38;;
74487;SDS011;63019;51.080;13.642;2022-11-20T06:16:51;6.05;;;1.90;;
74487;SDS011;63019;51.080;13.642;2022-11-20T06:17:53;8.05;;;2.40;;
74487;SDS011;63019;51.080;13.642;2022-11-20T06:18:56;5.28;;;2.55;;